KMXF/MXF METAR and TAF weather

Enter ICAO airport designator
Station Type Date Time Source
KMXF METAR 2019/08/24 21:56 UTC NOAA

KMXF 242156Z AUTO 01006KT 10SM FEW130 32/24 A2992 RMK AO2 SLP133 T03200238


Station Type Date Time Source
KMXF Decoded METAR 2019/08/24 21:56 UTC NOAA

Station name not available
Aug 24, 2019 - 05:56 PM EDT / 2019.08.24 2156 UTC
Wind: from the N (010 degrees) at 7 MPH (6 KT):0
Visibility: 10 mile(s):0
Sky conditions: mostly clear
Temperature: 89.6 F (32.0 C)
Heat index: 99.3 F (37.4 C):1
Dew Point: 74.8 F (23.8 C)
Relative Humidity: 61%
Pressure (altimeter): 29.92 in. Hg (1013 hPa)
ob: KMXF 242156Z AUTO 01006KT 10SM FEW130 32/24 A2992 RMK AO2 SLP133 T03200238
cycle: 22

Station Type Date Time Source
KMXF TAF 2019/08/24 19:14 UTC NOAA

TAF KMXF 241900Z 2419/2601 26006KT 9999 VCTS BKN040CB BKN100 QNH2993INS
TEMPO 2419/2501 26010G15KT 6000 -TSRA BKN030CB
BECMG 2501/2502 VRB06KT 9999 NSW FEW030 QNH2992INS
BECMG 2517/2518 10006KT 6000 -SHRA BKN030 QNH2990INS
TEMPO 2519/2601 10010G20KT 4800 -TSRA BKN020CB TX34/2420Z TN24/2512Z LAST NO
AMDS AFT 2423 NEXT 2511

Example: see airport list